NCAR-RAP Real-Time Weather Data

Output produced by METARs form (01 December 2020  17:38 UTC)
found at http://weather.rap.ucar.edu/surface/
 
KMBG 011652Z AUTO 32011KT 10SM CLR 02/M05 A2993 RMK AO2 SLP154 T00221050
KMBG 011552Z AUTO 32006KT 10SM CLR M02/M07 A2990 RMK AO2 SLP148 T10221072
KMBG 011452Z AUTO 33008KT 10SM CLR M06/M09 A2989 RMK AO2 PRESRR SLP147 I3000 T10611094 51018
KMBG 011352Z AUTO 34005KT 10SM CLR M08/M11 A2987 RMK AO2 SLP142 I1000 T10831106
KMBG 011252Z AUTO 31006KT 10SM CLR M09/M12 A2985 RMK AO2 SLP135 I1000 T10891122
KMBG 011152Z AUTO 33007KT 10SM CLR M07/M09 A2983 RMK AO2 SLP126 I1000 I6000 T10721094 11028 21089 53020
KMBG 011052Z AUTO 35006KT 10SM CLR M07/M09 A2981 RMK AO2 SLP115 T10671089
KMBG 010952Z AUTO 02007KT 10SM CLR M07/M11 A2978 RMK AO2 SLP103 T10671106
KMBG 010852Z AUTO 00000KT 10SM CLR M07/M11 A2977 RMK AO2 SLP101 T10721111 56006